Time;durP1;ratioP1;P1;durP2;ratioP2;P2;SDS_P1;SDS_P2;PMS_P1;PMS_P2;Temp;Humidity;BMP_temperature;BMP_pressure;BME280_temperature;BME280_humidity;BME280_pressure;Samples;Min_cycle;Max_cycle;Signal;HPM_P1;HPM_P2
2024/02/19 00:01:54;;;;;;;20.33;11.13;;;;;;;1.44;99.25;101094.28;6297307;28;20118;-75
2024/02/19 00:04:55;;;;;;;20.42;10.65;;;;;;;1.52;100.00;101097.66;6286792;28;20119;-69
2024/02/19 00:07:58;;;;;;;20.42;10.32;;;;;;;1.66;100.00;101102.72;6273671;28;20105;-74
2024/02/19 00:11:01;;;;;;;22.85;10.65;;;;;;;1.63;100.00;101099.31;6272248;28;20416;-75
2024/02/19 00:14:02;;;;;;;24.75;10.93;;;;;;;1.63;99.72;101091.59;6272096;28;20139;-75
2024/02/19 00:17:03;;;;;;;19.45;9.82;;;;;;;1.63;99.45;101092.47;6272454;28;20490;-69
2024/02/19 00:20:05;;;;;;;22.37;11.10;;;;;;;1.58;100.00;101095.06;6279424;28;20048;-75
2024/02/19 00:23:06;;;;;;;18.50;9.13;;;;;;;1.50;100.00;101103.69;6297976;28;20053;-75
2024/02/19 00:26:07;;;;;;;15.65;9.13;;;;;;;1.54;100.00;101098.50;6298103;28;20410;-69
2024/02/19 00:29:07;;;;;;;20.52;10.57;;;;;;;1.50;99.53;101094.25;6297655;28;20052;-74
2024/02/19 00:32:08;;;;;;;22.17;9.88;;;;;;;1.51;100.00;101092.56;6297758;28;20060;-75
2024/02/19 00:35:10;;;;;;;21.00;10.98;;;;;;;1.51;100.00;101084.84;6296427;28;20135;-75
2024/02/19 00:38:11;;;;;;;22.70;10.30;;;;;;;1.51;100.00;101095.13;6296547;28;20049;-69
2024/02/19 00:41:14;;;;;;;20.10;11.00;;;;;;;1.51;100.00;101090.81;6297179;28;20155;-70
2024/02/19 00:44:14;;;;;;;28.60;14.73;;;;;;;1.44;100.00;101096.00;6296184;28;20059;-69
2024/02/19 00:47:15;;;;;;;23.30;11.30;;;;;;;1.41;100.00;101089.19;6295905;28;20084;-69
2024/02/19 00:50:16;;;;;;;18.75;10.65;;;;;;;1.38;100.00;101084.03;6296087;28;20059;-69
2024/02/19 00:53:17;;;;;;;23.33;9.98;;;;;;;1.38;100.00;101087.50;6297387;28;20053;-75
2024/02/19 00:56:20;;;;;;;21.40;9.43;;;;;;;1.40;99.70;101087.47;6297155;28;20155;-75
2024/02/19 00:59:21;;;;;;;17.55;9.90;;;;;;;1.36;99.60;101089.22;6296032;28;20052;-75
2024/02/19 01:02:21;;;;;;;20.17;9.68;;;;;;;1.34;100.00;101079.78;6295835;28;20524;-69
2024/02/19 01:05:23;;;;;;;22.23;8.95;;;;;;;1.35;100.00;101089.22;6297155;28;20052;-75
2024/02/19 01:08:23;;;;;;;15.57;8.13;;;;;;;1.34;100.00;101082.34;6297233;28;20060;-69
2024/02/19 01:11:24;;;;;;;18.13;8.18;;;;;;;1.40;100.00;101085.75;6295572;28;20049;-69
2024/02/19 01:14:25;;;;;;;17.05;8.85;;;;;;;1.45;100.00;101079.75;6295569;28;20063;-69
2024/02/19 01:17:26;;;;;;;20.40;8.82;;;;;;;1.41;100.00;101089.19;6296748;28;20063;-69
2024/02/19 01:20:26;;;;;;;17.10;9.52;;;;;;;1.40;100.00;101083.19;6296779;28;20059;-69
2024/02/19 01:23:28;;;;;;;16.67;8.82;;;;;;;1.41;100.00;101077.16;6281488;28;20110;-69
2024/02/19 01:26:30;;;;;;;15.05;8.10;;;;;;;1.37;100.00;101074.63;6272136;28;20049;-69
2024/02/19 01:29:31;;;;;;;13.80;7.60;;;;;;;1.32;100.00;101069.53;6271579;28;20491;-69
2024/02/19 01:32:32;;;;;;;14.10;7.30;;;;;;;1.36;100.00;101067.78;6271901;28;20053;-74
2024/02/19 01:35:33;;;;;;;11.50;7.18;;;;;;;1.33;100.00;101060.94;6270682;28;20049;-70
2024/02/19 01:38:33;;;;;;;11.73;6.53;;;;;;;1.33;100.00;101070.38;6270680;28;20049;-69
2024/02/19 01:41:36;;;;;;;17.08;8.43;;;;;;;1.35;100.00;101060.94;6271805;28;20052;-70
2024/02/19 01:44:37;;;;;;;14.40;7.95;;;;;;;1.40;100.00;101065.19;6270298;28;20053;-70
2024/02/19 01:47:38;;;;;;;12.63;7.35;;;;;;;1.44;100.00;101054.88;6270382;28;20103;-69
2024/02/19 01:50:40;;;;;;;12.20;6.45;;;;;;;1.40;100.00;101048.88;6270726;28;20056;-69
2024/02/19 01:53:42;;;;;;;11.60;7.18;;;;;;;1.36;100.00;101052.34;6270351;28;20101;-70
2024/02/19 01:56:43;;;;;;;11.88;7.28;;;;;;;1.30;100.00;101047.28;6270363;28;20049;-69
2024/02/19 01:59:45;;;;;;;14.68;6.88;;;;;;;1.32;100.00;101048.97;6274350;28;20446;-69
2024/02/19 02:02:46;;;;;;;12.43;7.75;;;;;;;1.19;100.00;101043.06;6275107;28;20388;-69
2024/02/19 02:05:47;;;;;;;16.30;7.88;;;;;;;1.13;100.00;101026.78;6275254;28;20426;-69
2024/02/19 02:08:49;;;;;;;10.20;6.25;;;;;;;1.14;100.00;101036.22;6276951;28;20083;-70
2024/02/19 02:11:52;;;;;;;16.25;8.30;;;;;;;1.11;100.00;101024.25;6276786;28;20503;-69
2024/02/19 02:14:53;;;;;;;15.57;7.40;;;;;;;0.98;100.00;101027.75;6301245;28;20048;-69
2024/02/19 02:17:53;;;;;;;12.93;7.30;;;;;;;0.95;100.00;101020.91;6299724;28;20075;-70
2024/02/19 02:20:54;;;;;;;13.50;7.25;;;;;;;0.94;100.00;101019.19;6301099;28;20666;-75
2024/02/19 02:23:55;;;;;;;11.30;6.57;;;;;;;0.92;100.00;101014.94;6299653;28;20392;-74
2024/02/19 02:26:56;;;;;;;13.50;7.18;;;;;;;0.89;100.00;101020.09;6292110;28;20064;-74
2024/02/19 02:29:57;;;;;;;17.85;8.20;;;;;;;0.93;100.00;101014.09;6275634;28;20056;-75
2024/02/19 02:32:58;;;;;;;15.57;8.02;;;;;;;0.85;100.00;101014.13;6275670;28;20048;-75
2024/02/19 02:35:59;;;;;;;15.43;7.93;;;;;;;0.79;100.00;101006.44;6275379;28;20488;-75
2024/02/19 02:39:00;;;;;;;16.05;7.28;;;;;;;0.64;100.00;101009.09;6281950;28;20510;-75
2024/02/19 02:42:01;;;;;;;15.15;7.97;;;;;;;0.57;100.00;101003.13;6282503;28;20056;-75
2024/02/19 02:45:03;;;;;;;16.98;7.57;;;;;;;0.58;100.00;101002.28;6283339;28;20083;-74
2024/02/19 02:48:05;;;;;;;16.35;8.00;;;;;;;0.54;100.00;100998.88;6282540;28;20057;-75
2024/02/19 02:51:06;;;;;;;16.02;7.85;;;;;;;0.57;100.00;100995.41;6278450;28;20094;-70
2024/02/19 02:54:07;;;;;;;12.38;6.95;;;;;;;0.52;100.00;100994.59;6278512;28;20044;-75
2024/02/19 02:57:07;;;;;;;13.48;8.13;;;;;;;0.44;100.00;100999.78;6281980;28;20048;-75
2024/02/19 03:00:09;;;;;;;13.45;6.85;;;;;;;0.46;100.00;100992.91;6283246;28;20144;-69
2024/02/19 03:03:12;;;;;;;14.95;7.55;;;;;;;0.48;100.00;100990.34;6306837;28;20088;-69
2024/02/19 03:06:13;;;;;;;14.63;7.57;;;;;;;0.47;100.00;100988.63;6280495;28;20476;-69
2024/02/19 03:09:13;;;;;;;14.93;8.43;;;;;;;0.51;100.00;100990.31;6280060;28;20051;-69
2024/02/19 03:12:14;;;;;;;18.60;8.85;;;;;;;0.54;100.00;100992.88;6283124;28;20095;-69
2024/02/19 03:15:15;;;;;;;11.05;6.85;;;;;;;0.53;100.00;100989.44;6284864;28;20052;-69
2024/02/19 03:18:16;;;;;;;11.95;6.90;;;;;;;0.55;100.00;100990.28;6297915;28;20060;-69
2024/02/19 03:21:19;;;;;;;17.75;8.18;;;;;;;0.52;100.00;100987.75;6297304;28;20075;-69
2024/02/19 03:24:20;;;;;;;12.93;7.40;;;;;;;0.48;100.00;100995.47;6291986;28;20048;-74
2024/02/19 03:27:23;;;;;;;13.50;7.65;;;;;;;0.45;100.00;100990.34;6277963;28;20045;-69
2024/02/19 03:30:24;;;;;;;17.83;9.00;;;;;;;0.43;100.00;101000.63;6283044;28;20699;-69
2024/02/19 03:33:24;;;;;;;14.95;8.35;;;;;;;0.44;100.00;100997.19;6280134;28;20052;-73
2024/02/19 03:36:26;;;;;;;13.02;8.10;;;;;;;0.42;100.00;100995.50;6278639;28;20045;-75
2024/02/19 03:39:28;;;;;;;14.93;7.77;;;;;;;0.40;100.00;100993.78;6280238;28;20495;-75
2024/02/19 03:42:29;;;;;;;11.38;7.30;;;;;;;0.37;100.00;100988.69;6277528;28;20286;-74
2024/02/19 03:45:32;;;;;;;13.80;7.72;;;;;;;0.33;100.00;100989.56;6280051;28;20102;-69
2024/02/19 03:48:33;;;;;;;16.77;7.97;;;;;;;0.22;100.00;100987.88;6277967;28;20139;-69
2024/02/19 03:51:34;;;;;;;12.85;7.05;;;;;;;0.23;100.00;100992.13;6291699;28;20044;-69
2024/02/19 03:54:35;;;;;;;16.92;7.85;;;;;;;0.24;100.00;100989.56;6281979;28;20106;-69
2024/02/19 03:57:36;;;;;;;14.15;8.02;;;;;;;0.20;100.00;100985.31;6287392;28;20490;-69
2024/02/19 04:00:36;;;;;;;14.40;7.97;;;;;;;0.32;100.00;100989.53;6291190;28;20052;-69
2024/02/19 04:03:37;;;;;;;12.23;6.80;;;;;;;0.38;100.00;100980.09;6284849;28;20102;-70
2024/02/19 04:06:38;;;;;;;17.35;7.80;;;;;;;0.47;100.00;100986.91;6294930;28;20404;-70
2024/02/19 04:09:39;;;;;;;18.35;8.98;;;;;;;0.58;100.00;100972.31;6291209;28;20052;-69
2024/02/19 04:12:40;;;;;;;14.55;7.40;;;;;;;0.72;100.00;100974.81;6287939;28;20056;-69
2024/02/19 04:15:43;;;;;;;14.35;7.90;;;;;;;0.81;100.00;100984.19;6282855;28;20064;-69
2024/02/19 04:18:44;;;;;;;13.48;7.35;;;;;;;0.87;100.00;100983.28;6271904;28;20059;-75
2024/02/19 04:21:45;;;;;;;15.00;7.90;;;;;;;0.85;100.00;100969.59;6278060;28;20053;-74
2024/02/19 04:24:46;;;;;;;13.45;7.45;;;;;;;1.03;100.00;100977.19;6271576;28;20057;-74
2024/02/19 04:27:46;;;;;;;14.50;8.05;;;;;;;0.97;100.00;100969.53;6273207;28;20067;-74
2024/02/19 04:30:47;;;;;;;21.17;9.30;;;;;;;0.98;100.00;100974.63;6273772;28;20140;-74
2024/02/19 04:33:48;;;;;;;15.80;8.98;;;;;;;1.00;100.00;100977.19;6279062;28;20158;-75
2024/02/19 04:36:51;;;;;;;21.50;10.85;;;;;;;1.04;100.00;100971.16;6273349;28;20049;-74
2024/02/19 04:39:51;;;;;;;16.80;9.05;;;;;;;1.07;100.00;100978.88;6281120;28;20084;-74
2024/02/19 04:42:52;;;;;;;15.00;7.93;;;;;;;1.17;100.00;100971.91;6270225;28;20048;-74
2024/02/19 04:45:53;;;;;;;13.05;7.03;;;;;;;1.19;100.00;100965.06;6267099;28;20051;-74
2024/02/19 04:48:54;;;;;;;13.40;6.63;;;;;;;1.22;100.00;100972.75;6272274;28;20087;-74
2024/02/19 04:51:54;;;;;;;17.80;7.45;;;;;;;1.24;100.00;100968.47;6269527;28;20139;-74
2024/02/19 04:54:57;;;;;;;17.77;8.48;;;;;;;1.19;100.00;100975.34;6268817;28;20184;-75
2024/02/19 04:57:58;;;;;;;16.92;9.05;;;;;;;1.23;100.00;100963.31;6268714;28;20057;-74
2024/02/19 05:01:00;;;;;;;19.50;8.10;;;;;;;1.39;100.00;100962.31;6270457;28;20056;-74
2024/02/19 05:04:01;;;;;;;14.95;8.23;;;;;;;1.43;100.00;100961.44;6269511;28;20064;-74
2024/02/19 05:07:01;;;;;;;18.25;8.85;;;;;;;1.47;100.00;100962.25;6266980;28;20056;-75
2024/02/19 05:10:04;;;;;;;20.02;11.20;;;;;;;1.50;100.00;100960.50;6282896;28;20059;-74
2024/02/19 05:13:05;;;;;;;21.33;10.27;;;;;;;1.50;100.00;100962.22;6265476;28;20515;-75
2024/02/19 05:16:09;;;;;;;13.60;7.75;;;;;;;1.58;100.00;100955.28;6271156;28;20058;-74
2024/02/19 05:19:10;;;;;;;13.80;7.70;;;;;;;1.55;100.00;100951.03;6279034;28;20511;-75
2024/02/19 05:22:11;;;;;;;13.23;7.72;;;;;;;1.58;100.00;100958.69;6279162;28;20053;-75
2024/02/19 05:25:11;;;;;;;14.98;8.50;;;;;;;1.61;100.00;100958.69;6274354;28;20041;-74
2024/02/19 05:28:12;;;;;;;16.85;8.40;;;;;;;1.60;100.00;100954.41;6285911;28;20060;-75
2024/02/19 05:31:13;;;;;;;17.50;9.30;;;;;;;1.74;100.00;100948.28;6283895;28;20147;-74
2024/02/19 05:34:14;;;;;;;13.82;8.43;;;;;;;1.80;100.00;100953.38;6295712;28;20067;-75
2024/02/19 05:37:17;;;;;;;22.05;8.93;;;;;;;1.91;100.00;100950.66;6294547;28;20053;-75
2024/02/19 05:40:18;;;;;;;13.18;7.93;;;;;;;1.82;100.00;100949.06;6287876;28;20052;-69
2024/02/19 05:43:18;;;;;;;18.15;8.15;;;;;;;1.77;100.00;100954.25;6295274;28;20070;-74
2024/02/19 05:46:22;;;;;;;18.35;9.43;;;;;;;1.86;100.00;100948.16;6295578;28;20059;-69
2024/02/19 05:49:23;;;;;;;13.68;7.53;;;;;;;1.95;100.00;100942.03;6289770;28;20071;-74
2024/02/19 05:52:23;;;;;;;18.95;9.43;;;;;;;1.99;100.00;100934.25;6273062;28;20487;-74
2024/02/19 05:55:24;;;;;;;14.82;8.55;;;;;;;2.05;100.00;100947.94;6295600;28;20090;-74
2024/02/19 05:58:25;;;;;;;62.30;27.15;;;;;;;2.08;100.00;100929.88;6295588;28;20139;-75
2024/02/19 06:01:26;;;;;;;24.95;12.02;;;;;;;2.08;100.00;100932.44;6288603;28;20049;-69
2024/02/19 06:04:27;;;;;;;28.15;14.73;;;;;;;2.18;100.00;100934.91;6270531;28;20059;-74
2024/02/19 06:07:28;;;;;;;38.45;18.02;;;;;;;2.15;100.00;100928.94;6269586;28;20103;-69
2024/02/19 06:10:29;;;;;;;25.20;14.18;;;;;;;2.26;100.00;100932.22;6288442;28;20048;-69
2024/02/19 06:13:30;;;;;;;27.45;13.52;;;;;;;2.41;100.00;100939.75;6284979;28;20053;-75
2024/02/19 06:16:34;;;;;;;22.55;10.35;;;;;;;2.40;100.00;100927.75;6292904;28;20045;-74
2024/02/19 06:19:35;;;;;;;28.48;11.07;;;;;;;2.36;100.00;100933.81;6295279;28;20048;-75
2024/02/19 06:22:36;;;;;;;19.85;9.95;;;;;;;2.48;100.00;100927.66;6295348;28;20079;-75
2024/02/19 06:25:36;;;;;;;20.27;11.68;;;;;;;2.54;100.00;100931.88;6282707;28;20139;-74
2024/02/19 06:28:39;;;;;;;24.25;12.05;;;;;;;2.63;100.00;100937.72;6266628;28;20422;-74
2024/02/19 06:31:42;;;;;;;28.65;15.00;;;;;;;2.66;100.00;100931.69;6268381;28;20056;-69
2024/02/19 06:34:42;;;;;;;30.23;13.80;;;;;;;2.71;100.00;100935.03;6269431;28;20049;-75
2024/02/19 06:37:44;;;;;;;30.80;12.98;;;;;;;2.82;100.00;100942.63;6269100;28;20144;-75
2024/02/19 06:40:47;;;;;;;22.10;11.18;;;;;;;2.94;100.00;100941.59;6269018;28;20131;-75
2024/02/19 06:43:48;;;;;;;22.20;12.70;;;;;;;2.98;100.00;100944.09;6269776;28;20049;-75
2024/02/19 06:46:51;;;;;;;28.98;16.45;;;;;;;3.06;100.00;100943.97;6273637;28;20465;-75
2024/02/19 06:49:52;;;;;;;26.40;13.98;;;;;;;3.14;100.00;100938.72;6273540;28;20089;-75
2024/02/19 06:52:53;;;;;;;28.15;13.43;;;;;;;3.30;100.00;100947.91;6274360;28;20049;-75
2024/02/19 06:55:53;;;;;;;31.52;14.93;;;;;;;3.37;100.00;100936.56;6274409;28;20084;-75
2024/02/19 06:58:54;;;;;;;25.20;11.80;;;;;;;3.50;100.00;100938.94;6273065;28;20111;-75
2024/02/19 07:01:55;;;;;;;52.30;24.58;;;;;;;3.39;100.00;100936.56;6274171;28;20055;-75
2024/02/19 07:04:56;;;;;;;29.17;13.60;;;;;;;3.36;100.00;100939.22;6274116;28;20480;-69
2024/02/19 07:07:57;;;;;;;15.50;9.40;;;;;;;3.56;100.00;100942.28;6274191;28;20051;-69
2024/02/19 07:11:00;;;;;;;20.25;10.95;;;;;;;3.52;100.00;100944.94;6273966;28;20045;-69
2024/02/19 07:14:01;;;;;;;22.17;11.68;;;;;;;3.82;100.00;100934.03;6272657;28;20080;-69
2024/02/19 07:17:04;;;;;;;21.98;11.18;;;;;;;4.10;99.28;100932.66;6273898;28;20049;-69
2024/02/19 07:20:06;;;;;;;18.25;9.93;;;;;;;4.23;97.01;100919.47;6273737;28;20049;-69
2024/02/19 07:23:07;;;;;;;17.27;9.32;;;;;;;4.43;97.51;100928.53;6273851;28;20048;-69
2024/02/19 07:26:08;;;;;;;35.42;10.70;;;;;;;4.66;97.18;100922.84;6272204;28;20171;-69
2024/02/19 07:29:09;;;;;;;22.08;11.65;;;;;;;4.84;94.86;100924.16;6273549;28;20113;-69
2024/02/19 07:32:10;;;;;;;28.63;13.13;;;;;;;4.92;93.40;100906.75;6272271;28;20064;-70
2024/02/19 07:35:11;;;;;;;22.02;10.30;;;;;;;4.96;92.63;100908.38;6273395;28;20045;-69
2024/02/19 07:38:12;;;;;;;19.83;9.90;;;;;;;5.10;92.88;100909.75;6287920;28;20048;-70
2024/02/19 07:41:21;;;;;;;25.42;12.93;;;;;;;5.15;92.73;100900.16;6296672;28;20041;-74
2024/02/19 07:44:24;;;;;;;35.25;17.40;;;;;;;5.16;95.07;100891.50;6298144;28;20052;-70
2024/02/19 07:47:27;;;;;;;31.30;11.82;;;;;;;5.25;93.43;100884.34;6297021;28;20126;-75
2024/02/19 07:50:28;;;;;;;28.88;11.10;;;;;;;5.20;93.89;100895.69;6298178;28;20044;-69
2024/02/19 07:53:29;;;;;;;38.15;11.00;;;;;;;5.25;95.67;100888.69;6296622;28;20078;-69
2024/02/19 07:56:30;;;;;;;20.00;10.32;;;;;;;5.31;95.04;100901.44;6296224;28;20101;-75
2024/02/19 07:59:30;;;;;;;19.65;10.05;;;;;;;5.35;93.96;100897.88;6297791;28;20056;-75
2024/02/19 08:02:31;;;;;;;39.22;18.40;;;;;;;5.49;94.03;100894.09;6296575;28;20052;-75
2024/02/19 08:05:32;;;;;;;38.22;18.50;;;;;;;5.67;93.65;100895.34;6297480;28;20080;-75
2024/02/19 08:08:35;;;;;;;32.25;14.68;;;;;;;6.00;92.35;100893.59;6297605;28;20106;-69
2024/02/19 08:11:37;;;;;;;22.15;9.57;;;;;;;6.27;90.17;100896.28;6296208;28;20048;-70
2024/02/19 08:14:37;;;;;;;18.17;8.48;;;;;;;6.59;87.15;100901.34;6297486;28;20134;-70
2024/02/19 08:17:38;;;;;;;20.95;8.77;;;;;;;6.87;85.92;100884.88;6297297;28;20044;-75
2024/02/19 08:20:40;;;;;;;15.60;7.82;;;;;;;6.87;84.23;100884.88;6297044;28;20143;-70
2024/02/19 08:23:41;;;;;;;14.80;7.63;;;;;;;7.11;81.68;100879.78;6296101;28;20056;-70
2024/02/19 08:26:42;;;;;;;13.40;7.78;;;;;;;7.34;80.67;100881.59;6295611;28;20044;-75
2024/02/19 08:29:43;;;;;;;12.85;7.07;;;;;;;7.62;79.92;100882.34;6297061;28;20056;-69
2024/02/19 08:32:44;;;;;;;13.18;7.03;;;;;;;7.96;78.87;100877.66;6296810;28;20098;-75
2024/02/19 08:35:44;;;;;;;14.68;7.65;;;;;;;8.03;78.91;100884.31;6295774;28;20459;-75
2024/02/19 08:38:49;;;;;;;11.52;6.97;;;;;;;8.19;77.50;100877.63;6295386;28;20058;-70
2024/02/19 08:41:50;;;;;;;16.92;7.78;;;;;;;8.42;77.08;100868.16;6295447;28;20487;-75
2024/02/19 08:44:51;;;;;;;13.45;7.13;;;;;;;8.66;75.18;100868.94;6295308;28;20047;-75
2024/02/19 08:47:52;;;;;;;15.13;7.07;;;;;;;8.51;74.61;100866.97;6296725;28;20055;-75
2024/02/19 08:50:53;;;;;;;14.98;7.53;;;;;;;8.64;74.14;100871.59;6296714;28;20053;-70
2024/02/19 08:53:56;;;;;;;14.57;7.85;;;;;;;8.95;73.31;100859.94;6295162;28;20474;-70
2024/02/19 08:56:59;;;;;;;18.63;7.15;;;;;;;8.72;73.16;100860.88;6295064;28;20110;-70
2024/02/19 09:00:00;;;;;;;12.15;6.93;;;;;;;8.75;73.23;100862.50;6296182;28;20067;-70
2024/02/19 09:03:04;;;;;;;11.95;6.90;;;;;;;8.79;73.78;100851.94;6295158;28;20157;-70
2024/02/19 09:06:06;;;;;;;15.07;6.90;;;;;;;9.29;72.75;100850.72;6296153;28;20117;-70
2024/02/19 09:09:08;;;;;;;12.82;7.65;;;;;;;9.65;71.47;100855.22;6294579;28;20114;-69
2024/02/19 09:12:08;;;;;;;17.60;6.57;;;;;;;9.63;71.40;100850.06;6295650;28;20137;-70
2024/02/19 09:15:11;;;;;;;13.50;7.05;;;;;;;9.66;70.97;100843.91;6295938;28;20048;-71
2024/02/19 09:18:12;;;;;;;14.02;8.23;;;;;;;9.58;69.42;100846.84;6295756;28;20053;-71
2024/02/19 09:21:13;;;;;;;17.25;7.97;;;;;;;10.07;68.78;100846.41;6294727;28;20418;-71
2024/02/19 09:24:14;;;;;;;10.93;6.53;;;;;;;10.28;68.15;100848.00;6294907;28;20257;-70
2024/02/19 09:27:19;;;;;;;11.25;6.55;;;;;;;10.44;68.22;100836.88;6295778;28;20461;-70
2024/02/19 09:30:20;;;;;;;13.57;6.88;;;;;;;10.18;67.94;100836.28;6294519;28;20071;-75
2024/02/19 09:33:21;;;;;;;15.50;8.32;;;;;;;10.43;67.49;100833.41;6295016;28;20392;-75
2024/02/19 09:36:22;;;;;;;15.98;6.20;;;;;;;10.76;67.90;100837.91;6295963;28;20131;-75
2024/02/19 09:39:22;;;;;;;12.00;6.70;;;;;;;10.56;65.88;100833.63;6295850;28;20090;-70
2024/02/19 09:42:28;;;;;;;11.45;5.32;;;;;;;10.60;65.54;100831.75;6295845;28;20052;-70
2024/02/19 09:45:28;;;;;;;11.23;6.00;;;;;;;10.84;64.90;100837.53;6295656;28;20483;-71
2024/02/19 09:48:32;;;;;;;10.60;5.95;;;;;;;10.83;63.48;100833.22;6296124;28;20299;-70
2024/02/19 09:51:35;;;;;;;8.95;5.20;;;;;;;11.11;63.32;100826.63;6294554;28;20052;-70
2024/02/19 09:54:35;;;;;;;10.63;5.72;;;;;;;11.48;62.40;100828.16;6294436;28;20075;-70
2024/02/19 09:57:36;;;;;;;7.90;5.50;;;;;;;11.26;62.71;100824.06;6295529;28;20550;-70
2024/02/19 10:00:42;;;;;;;7.90;4.85;;;;;;;11.14;62.24;100823.84;6295498;28;20052;-70
2024/02/19 10:03:43;;;;;;;8.35;4.78;;;;;;;11.02;62.04;100815.72;6294484;28;20048;-70
2024/02/19 10:06:44;;;;;;;9.57;5.38;;;;;;;11.15;63.39;100810.72;6295472;28;20048;-70
2024/02/19 10:09:50;;;;;;;10.70;5.77;;;;;;;11.53;62.40;100822.69;6294360;28;20048;-75
2024/02/19 10:12:53;;;;;;;9.88;5.25;;;;;;;11.25;63.99;100809.31;6294264;28;20359;-76
2024/02/19 10:15:53;;;;;;;12.45;6.32;;;;;;;11.17;64.50;100808.03;6294288;28;20048;-76
2024/02/19 10:19:15;;;;;;;11.80;6.13;;;;;;;11.57;65.08;100806.78;6295220;28;20049;-75
2024/02/19 10:22:20;;;;;;;9.98;5.47;;;;;;;11.38;64.54;100819.97;6298979;28;20131;-75
2024/02/19 10:25:21;;;;;;;8.48;5.80;;;;;;;11.21;65.60;100820.00;6300018;28;20552;-75
2024/02/19 10:28:23;;;;;;;10.25;5.85;;;;;;;11.39;65.38;100815.59;6298581;28;20131;-75
2024/02/19 10:31:31;;;;;;;19.20;6.15;;;;;;;11.08;65.06;100809.34;6299725;28;20114;-76
2024/02/19 10:34:33;;;;;;;12.93;6.07;;;;;;;11.13;65.03;100814.31;6299896;28;20048;-75
2024/02/19 10:37:36;;;;;;;9.93;5.82;;;;;;;11.34;66.07;100809.75;6299702;28;20048;-70
2024/02/19 10:40:37;;;;;;;13.82;5.82;;;;;;;11.12;65.71;100804.78;6299652;28;20434;-74
2024/02/19 10:43:38;;;;;;;10.68;5.97;;;;;;;11.28;64.66;100793.50;6298327;28;20360;-70
2024/02/19 10:46:44;;;;;;;12.45;6.43;;;;;;;11.20;64.48;100792.19;6299539;28;20051;-70
2024/02/19 10:49:52;;;;;;;8.65;5.10;;;;;;;11.38;62.44;100793.81;6299439;28;20052;-75
2024/02/19 10:52:52;;;;;;;10.07;6.03;;;;;;;11.33;63.27;100792.41;6299588;28;20494;-75
2024/02/19 10:56:09;;;;;;;9.02;5.20;;;;;;;11.42;63.01;100782.28;6297547;28;20052;-71
2024/02/19 10:59:14;;;;;;;12.38;6.43;;;;;;;11.58;62.66;100778.88;6298971;28;20083;-71
2024/02/19 11:02:25;;;;;;;8.00;5.32;;;;;;;11.52;63.50;100777.44;6298180;28;20139;-70
2024/02/19 11:05:27;;;;;;;9.00;5.95;;;;;;;11.62;63.20;100772.56;6298904;28;20499;-75
2024/02/19 11:08:34;;;;;;;8.00;5.25;;;;;;;11.46;63.35;100767.31;6299542;28;20080;-75
2024/02/19 11:11:35;;;;;;;8.70;5.28;;;;;;;11.48;63.31;100760.22;6298868;28;20044;-70
2024/02/19 11:14:40;;;;;;;8.15;5.07;;;;;;;11.21;63.32;100763.38;6298713;28;20495;-70
2024/02/19 11:17:43;;;;;;;9.93;5.85;;;;;;;11.32;63.87;100754.13;6298569;28;20048;-70
2024/02/19 11:20:44;;;;;;;9.10;5.72;;;;;;;11.06;63.71;100746.75;6297482;28;20049;-75
2024/02/19 11:23:45;;;;;;;10.65;6.07;;;;;;;10.88;64.39;100743.31;6298660;28;20048;-75
2024/02/19 11:26:46;;;;;;;14.90;6.75;;;;;;;10.97;65.39;100734.16;6297342;28;20082;-75
2024/02/19 11:29:47;;;;;;;11.20;6.18;;;;;;;10.69;65.00;100735.56;6298202;28;20536;-70
2024/02/19 11:32:59;;;;;;;12.90;6.45;;;;;;;10.84;65.50;100730.50;6297877;28;20048;-70
2024/02/19 11:36:00;;;;;;;10.10;5.45;;;;;;;10.95;63.74;100736.00;6298440;28;20052;-70
2024/02/19 11:39:01;;;;;;;8.95;4.53;;;;;;;10.77;63.58;100736.94;6298218;28;20110;-70
2024/02/19 11:42:04;;;;;;;9.23;5.07;;;;;;;10.93;63.89;100726.56;6298182;28;20465;-69
2024/02/19 11:45:05;;;;;;;8.63;4.63;;;;;;;10.87;63.39;100723.34;6298396;28;20083;-70
2024/02/19 11:48:07;;;;;;;11.68;6.20;;;;;;;10.94;62.97;100723.03;6298464;28;20376;-70
2024/02/19 11:51:09;;;;;;;7.45;4.80;;;;;;;11.09;62.73;100711.78;6296718;28;20052;-70
2024/02/19 11:54:10;;;;;;;9.75;4.72;;;;;;;11.10;64.38;100718.69;6298078;28;20048;-75
2024/02/19 11:57:12;;;;;;;8.50;4.93;;;;;;;11.02;63.49;100715.66;6297599;28;20059;-75
2024/02/19 12:00:14;;;;;;;8.98;4.63;;;;;;;10.74;62.92;100708.38;6296668;28;20052;-75
2024/02/19 12:03:15;;;;;;;6.38;4.45;;;;;;;10.74;63.46;100704.00;6297604;28;20135;-75
2024/02/19 12:06:16;;;;;;;11.05;5.63;;;;;;;10.77;63.68;100695.16;6297785;28;20404;-75
2024/02/19 12:09:17;;;;;;;7.90;4.85;;;;;;;10.91;63.54;100695.28;6296293;28;20072;-70
2024/02/19 12:12:20;;;;;;;6.57;4.50;;;;;;;10.92;63.67;100690.94;6297729;28;20141;-69
2024/02/19 12:15:21;;;;;;;5.72;3.90;;;;;;;10.95;62.61;100689.00;6297114;28;20056;-70
2024/02/19 12:18:22;;;;;;;7.43;4.35;;;;;;;10.94;63.27;100683.88;6296436;28;20701;-69
2024/02/19 12:21:27;;;;;;;5.18;3.72;;;;;;;10.82;63.04;100678.34;6297165;28;20067;-70
2024/02/19 12:24:29;;;;;;;7.22;3.88;;;;;;;10.73;63.48;100685.81;6296833;28;20547;-70
2024/02/19 12:27:34;;;;;;;6.30;4.40;;;;;;;10.90;63.12;100677.97;6296855;28;20040;-70
2024/02/19 12:30:35;;;;;;;8.45;4.30;;;;;;;10.89;63.40;100671.03;6296794;28;20060;-70
2024/02/19 12:33:37;;;;;;;12.55;4.25;;;;;;;10.88;63.71;100659.75;6297056;28;20534;-70
2024/02/19 12:36:41;;;;;;;7.20;4.38;;;;;;;10.96;63.15;100664.59;6295587;28;20044;-75
2024/02/19 12:39:42;;;;;;;7.28;4.43;;;;;;;10.95;63.15;100662.03;6296900;28;20049;-75
2024/02/19 12:42:43;;;;;;;7.47;4.70;;;;;;;11.03;63.38;100659.88;6296101;28;20102;-75
2024/02/19 12:45:45;;;;;;;7.78;5.00;;;;;;;10.94;64.09;100652.53;6295565;28;20510;-76
2024/02/19 12:48:46;;;;;;;10.48;5.47;;;;;;;10.77;63.57;100659.50;6296678;28;20048;-76
2024/02/19 12:51:48;;;;;;;6.93;3.95;;;;;;;10.84;64.27;100658.22;6295298;28;20131;-76
2024/02/19 12:54:51;;;;;;;9.98;4.93;;;;;;;10.83;63.88;100650.47;6295306;28;20554;-76
2024/02/19 12:57:54;;;;;;;8.27;5.05;;;;;;;10.88;64.06;100646.69;6296114;28;20090;-76
2024/02/19 13:00:58;;;;;;;9.10;5.47;;;;;;;10.97;64.42;100645.38;6294796;28;20461;-76
2024/02/19 13:03:59;;;;;;;8.82;5.05;;;;;;;10.83;63.61;100645.25;6295141;28;20510;-76
2024/02/19 13:07:02;;;;;;;7.67;4.33;;;;;;;10.84;63.16;100649.56;6295550;28;20055;-76
2024/02/19 13:10:04;;;;;;;6.43;3.80;;;;;;;10.79;63.06;100652.44;6294960;28;20072;-76
2024/02/19 13:13:10;;;;;;;7.55;4.38;;;;;;;10.89;63.62;100640.56;6295260;28;20048;-70
2024/02/19 13:16:14;;;;;;;8.48;4.88;;;;;;;10.93;64.20;100637.78;6296039;28;20131;-70
2024/02/19 13:19:17;;;;;;;8.38;5.32;;;;;;;11.04;64.62;100644.13;6295281;28;20087;-70
2024/02/19 13:22:18;;;;;;;10.57;5.40;;;;;;;10.95;64.87;100642.00;6294320;28;20453;-71
2024/02/19 13:25:18;;;;;;;10.40;5.80;;;;;;;10.93;64.52;100632.56;6295579;28;20094;-70
2024/02/19 13:28:21;;;;;;;7.70;5.03;;;;;;;10.95;65.67;100634.16;6294693;28;20056;-70
2024/02/19 13:31:22;;;;;;;9.88;4.88;;;;;;;10.97;66.62;100628.88;6294519;28;20167;-70
2024/02/19 13:34:23;;;;;;;7.75;4.88;;;;;;;10.92;66.85;100633.50;6295942;28;20477;-70
2024/02/19 13:37:25;;;;;;;11.85;5.32;;;;;;;10.90;66.37;100628.34;6295691;28;20086;-70
2024/02/19 13:40:26;;;;;;;7.72;4.63;;;;;;;10.79;67.09;100625.44;6295393;28;20044;-71
2024/02/19 13:43:27;;;;;;;16.75;5.82;;;;;;;10.92;67.47;100623.06;6294705;28;20048;-70
2024/02/19 13:46:28;;;;;;;11.38;5.45;;;;;;;11.05;67.70;100616.25;6294190;28;20044;-70
2024/02/19 13:49:29;;;;;;;9.25;5.38;;;;;;;10.99;67.40;100616.56;6294634;28;20058;-70
2024/02/19 13:52:29;;;;;;;15.02;5.82;;;;;;;10.93;67.21;100609.06;6295590;28;20122;-70
2024/02/19 13:55:30;;;;;;;27.58;10.25;;;;;;;10.92;66.55;100615.22;6298031;28;20135;-69
2024/02/19 13:58:34;;;;;;;10.25;5.68;;;;;;;10.79;67.96;100617.63;6300974;28;20483;-70